sensor_id;sensor_type;location;lat;lon;timestamp;P1;durP1;ratioP1;P2;durP2;ratioP2
75007;SDS011;63554;48.940;12.050;2022-11-18T00:01:22;6.68;;;3.97;;
75007;SDS011;63554;48.940;12.050;2022-11-18T00:05:25;3.75;;;3.45;;
75007;SDS011;63554;48.940;12.050;2022-11-18T00:09:29;3.58;;;3.22;;
75007;SDS011;63554;48.940;12.050;2022-11-18T00:13:32;4.63;;;3.33;;
75007;SDS011;63554;48.940;12.050;2022-11-18T00:17:52;4.90;;;3.63;;
75007;SDS011;63554;48.940;12.050;2022-11-18T00:21:55;3.83;;;3.53;;
75007;SDS011;63554;48.940;12.050;2022-11-18T00:26:02;4.03;;;3.67;;
75007;SDS011;63554;48.940;12.050;2022-11-18T00:30:05;3.40;;;3.20;;
75007;SDS011;63554;48.940;12.050;2022-11-18T00:34:09;3.35;;;3.10;;
75007;SDS011;63554;48.940;12.050;2022-11-18T00:38:14;4.35;;;3.95;;
75007;SDS011;63554;48.940;12.050;2022-11-18T00:42:18;4.55;;;3.88;;
75007;SDS011;63554;48.940;12.050;2022-11-18T00:46:38;3.85;;;3.47;;
75007;SDS011;63554;48.940;12.050;2022-11-18T00:50:40;5.72;;;3.72;;
75007;SDS011;63554;48.940;12.050;2022-11-18T00:54:43;4.68;;;4.10;;
75007;SDS011;63554;48.940;12.050;2022-11-18T00:58:47;5.13;;;4.38;;
75007;SDS011;63554;48.940;12.050;2022-11-18T01:02:50;6.03;;;4.32;;
75007;SDS011;63554;48.940;12.050;2022-11-18T01:06:52;5.57;;;4.53;;
75007;SDS011;63554;48.940;12.050;2022-11-18T01:10:55;4.57;;;2.40;;
75007;SDS011;63554;48.940;12.050;2022-11-18T01:15:20;5.90;;;3.90;;
75007;SDS011;63554;48.940;12.050;2022-11-18T01:19:22;4.47;;;4.10;;
75007;SDS011;63554;48.940;12.050;2022-11-18T01:23:25;4.03;;;3.70;;
75007;SDS011;63554;48.940;12.050;2022-11-18T01:27:28;4.43;;;4.03;;
75007;SDS011;63554;48.940;12.050;2022-11-18T01:31:33;5.28;;;3.95;;
75007;SDS011;63554;48.940;12.050;2022-11-18T01:35:55;4.45;;;4.00;;
75007;SDS011;63554;48.940;12.050;2022-11-18T01:39:58;4.45;;;4.05;;
75007;SDS011;63554;48.940;12.050;2022-11-18T01:44:01;4.70;;;4.28;;
75007;SDS011;63554;48.940;12.050;2022-11-18T01:48:08;3.20;;;2.92;;
75007;SDS011;63554;48.940;12.050;2022-11-18T01:52:15;3.42;;;3.13;;
75007;SDS011;63554;48.940;12.050;2022-11-18T01:56:20;4.57;;;4.18;;
75007;SDS011;63554;48.940;12.050;2022-11-18T02:00:26;4.30;;;3.47;;
75007;SDS011;63554;48.940;12.050;2022-11-18T02:04:30;3.63;;;3.40;;
75007;SDS011;63554;48.940;12.050;2022-11-18T02:08:35;4.07;;;3.75;;
75007;SDS011;63554;48.940;12.050;2022-11-18T02:12:39;4.50;;;3.53;;
75007;SDS011;63554;48.940;12.050;2022-11-18T02:16:45;2.10;;;1.90;;
75007;SDS011;63554;48.940;12.050;2022-11-18T02:21:02;6.07;;;3.58;;
75007;SDS011;63554;48.940;12.050;2022-11-18T02:25:14;3.42;;;3.08;;
75007;SDS011;63554;48.940;12.050;2022-11-18T02:29:24;4.53;;;3.38;;
75007;SDS011;63554;48.940;12.050;2022-11-18T02:33:32;4.93;;;3.20;;
75007;SDS011;63554;48.940;12.050;2022-11-18T02:37:43;3.13;;;2.80;;
75007;SDS011;63554;48.940;12.050;2022-11-18T02:41:49;4.60;;;4.18;;
75007;SDS011;63554;48.940;12.050;2022-11-18T02:45:59;4.35;;;3.70;;
75007;SDS011;63554;48.940;12.050;2022-11-18T02:50:07;2.95;;;2.78;;
75007;SDS011;63554;48.940;12.050;2022-11-18T02:54:13;3.00;;;2.80;;
75007;SDS011;63554;48.940;12.050;2022-11-18T02:58:20;4.50;;;3.58;;
75007;SDS011;63554;48.940;12.050;2022-11-18T03:02:25;6.07;;;4.25;;
75007;SDS011;63554;48.940;12.050;2022-11-18T03:06:29;4.15;;;3.28;;
75007;SDS011;63554;48.940;12.050;2022-11-18T03:10:39;3.55;;;2.13;;
75007;SDS011;63554;48.940;12.050;2022-11-18T03:14:50;3.97;;;2.33;;
75007;SDS011;63554;48.940;12.050;2022-11-18T03:19:06;4.75;;;3.45;;
75007;SDS011;63554;48.940;12.050;2022-11-18T03:23:16;4.13;;;3.78;;
75007;SDS011;63554;48.940;12.050;2022-11-18T03:27:26;3.33;;;3.05;;
75007;SDS011;63554;48.940;12.050;2022-11-18T03:31:33;4.40;;;4.05;;
75007;SDS011;63554;48.940;12.050;2022-11-18T03:35:42;3.70;;;3.25;;
75007;SDS011;63554;48.940;12.050;2022-11-18T03:39:48;3.88;;;3.55;;
75007;SDS011;63554;48.940;12.050;2022-11-18T03:43:55;4.30;;;3.90;;
75007;SDS011;63554;48.940;12.050;2022-11-18T03:48:00;3.65;;;3.00;;
75007;SDS011;63554;48.940;12.050;2022-11-18T03:52:12;3.45;;;2.85;;
75007;SDS011;63554;48.940;12.050;2022-11-18T03:56:20;5.03;;;3.47;;
75007;SDS011;63554;48.940;12.050;2022-11-18T04:00:27;4.95;;;3.28;;
75007;SDS011;63554;48.940;12.050;2022-11-18T04:04:33;3.30;;;2.63;;
75007;SDS011;63554;48.940;12.050;2022-11-18T04:08:38;3.67;;;3.33;;
75007;SDS011;63554;48.940;12.050;2022-11-18T04:12:44;2.60;;;2.35;;
75007;SDS011;63554;48.940;12.050;2022-11-18T04:16:50;6.72;;;4.00;;
75007;SDS011;63554;48.940;12.050;2022-11-18T04:20:53;4.30;;;2.00;;
75007;SDS011;63554;48.940;12.050;2022-11-18T04:24:58;5.95;;;4.22;;
75007;SDS011;63554;48.940;12.050;2022-11-18T04:29:00;5.13;;;4.40;;
75007;SDS011;63554;48.940;12.050;2022-11-18T04:33:03;6.28;;;4.25;;
75007;SDS011;63554;48.940;12.050;2022-11-18T04:37:06;5.47;;;3.28;;
75007;SDS011;63554;48.940;12.050;2022-11-18T04:41:10;4.45;;;4.10;;
75007;SDS011;63554;48.940;12.050;2022-11-18T04:45:13;4.75;;;3.90;;
75007;SDS011;63554;48.940;12.050;2022-11-18T04:49:16;6.00;;;3.78;;
75007;SDS011;63554;48.940;12.050;2022-11-18T04:53:19;3.95;;;3.03;;
75007;SDS011;63554;48.940;12.050;2022-11-18T04:57:23;6.95;;;4.78;;
75007;SDS011;63554;48.940;12.050;2022-11-18T05:01:26;4.40;;;3.53;;
75007;SDS011;63554;48.940;12.050;2022-11-18T05:05:29;3.22;;;2.92;;
75007;SDS011;63554;48.940;12.050;2022-11-18T05:09:32;5.35;;;4.43;;
75007;SDS011;63554;48.940;12.050;2022-11-18T05:13:37;4.60;;;4.00;;
75007;SDS011;63554;48.940;12.050;2022-11-18T05:17:40;4.38;;;3.83;;
75007;SDS011;63554;48.940;12.050;2022-11-18T05:21:43;6.28;;;3.50;;
75007;SDS011;63554;48.940;12.050;2022-11-18T05:25:46;5.60;;;4.20;;
75007;SDS011;63554;48.940;12.050;2022-11-18T05:29:50;4.22;;;3.83;;
75007;SDS011;63554;48.940;12.050;2022-11-18T05:33:53;4.03;;;3.63;;
75007;SDS011;63554;48.940;12.050;2022-11-18T05:37:56;4.55;;;3.83;;
75007;SDS011;63554;48.940;12.050;2022-11-18T05:41:58;5.43;;;3.67;;
75007;SDS011;63554;48.940;12.050;2022-11-18T05:46:20;6.10;;;3.70;;
75007;SDS011;63554;48.940;12.050;2022-11-18T05:50:23;3.75;;;2.75;;
75007;SDS011;63554;48.940;12.050;2022-11-18T05:54:26;5.90;;;5.40;;
75007;SDS011;63554;48.940;12.050;2022-11-18T05:58:29;3.53;;;2.90;;
75007;SDS011;63554;48.940;12.050;2022-11-18T06:02:33;5.32;;;4.82;;
75007;SDS011;63554;48.940;12.050;2022-11-18T06:06:36;3.83;;;3.40;;
75007;SDS011;63554;48.940;12.050;2022-11-18T06:10:39;3.13;;;2.28;;
75007;SDS011;63554;48.940;12.050;2022-11-18T06:14:44;4.68;;;3.78;;
75007;SDS011;63554;48.940;12.050;2022-11-18T06:18:55;4.95;;;3.53;;
75007;SDS011;63554;48.940;12.050;2022-11-18T06:22:59;5.00;;;4.25;;
75007;SDS011;63554;48.940;12.050;2022-11-18T06:27:02;3.70;;;3.17;;
75007;SDS011;63554;48.940;12.050;2022-11-18T06:31:05;3.08;;;2.60;;
75007;SDS011;63554;48.940;12.050;2022-11-18T06:35:09;3.85;;;3.55;;
75007;SDS011;63554;48.940;12.050;2022-11-18T06:39:12;3.90;;;2.90;;
75007;SDS011;63554;48.940;12.050;2022-11-18T06:43:15;3.05;;;2.75;;
75007;SDS011;63554;48.940;12.050;2022-11-18T06:47:35;7.72;;;3.25;;
75007;SDS011;63554;48.940;12.050;2022-11-18T06:51:39;4.90;;;4.10;;
75007;SDS011;63554;48.940;12.050;2022-11-18T06:55:42;2.33;;;2.13;;
75007;SDS011;63554;48.940;12.050;2022-11-18T06:59:45;4.30;;;3.70;;
75007;SDS011;63554;48.940;12.050;2022-11-18T07:03:48;3.33;;;3.03;;
75007;SDS011;63554;48.940;12.050;2022-11-18T07:07:53;4.60;;;2.65;;
75007;SDS011;63554;48.940;12.050;2022-11-18T07:11:56;4.20;;;3.00;;
75007;SDS011;63554;48.940;12.050;2022-11-18T07:16:03;3.88;;;3.13;;
75007;SDS011;63554;48.940;12.050;2022-11-18T07:20:07;3.63;;;2.80;;
75007;SDS011;63554;48.940;12.050;2022-11-18T07:24:12;3.50;;;3.20;;
75007;SDS011;63554;48.940;12.050;2022-11-18T07:28:16;4.88;;;3.80;;
75007;SDS011;63554;48.940;12.050;2022-11-18T07:32:19;2.88;;;2.47;;
75007;SDS011;63554;48.940;12.050;2022-11-18T07:36:22;2.83;;;2.63;;
75007;SDS011;63554;48.940;12.050;2022-11-18T07:40:34;2.30;;;2.10;;
75007;SDS011;63554;48.940;12.050;2022-11-18T07:44:36;3.35;;;2.42;;
75007;SDS011;63554;48.940;12.050;2022-11-18T07:48:39;3.88;;;2.83;;
75007;SDS011;63554;48.940;12.050;2022-11-18T07:52:43;3.42;;;2.38;;
75007;SDS011;63554;48.940;12.050;2022-11-18T07:56:47;2.78;;;2.38;;
75007;SDS011;63554;48.940;12.050;2022-11-18T08:00:49;2.42;;;2.25;;
75007;SDS011;63554;48.940;12.050;2022-11-18T08:04:52;2.95;;;2.67;;
75007;SDS011;63554;48.940;12.050;2022-11-18T08:08:55;5.72;;;4.10;;
75007;SDS011;63554;48.940;12.050;2022-11-18T08:13:03;3.63;;;3.08;;
75007;SDS011;63554;48.940;12.050;2022-11-18T08:17:06;5.40;;;3.65;;
75007;SDS011;63554;48.940;12.050;2022-11-18T08:21:09;3.92;;;3.60;;
75007;SDS011;63554;48.940;12.050;2022-11-18T08:25:13;4.57;;;3.88;;
75007;SDS011;63554;48.940;12.050;2022-11-18T08:29:17;3.97;;;2.83;;
75007;SDS011;63554;48.940;12.050;2022-11-18T08:33:25;2.95;;;2.67;;
75007;SDS011;63554;48.940;12.050;2022-11-18T08:37:28;3.50;;;3.20;;
75007;SDS011;63554;48.940;12.050;2022-11-18T08:41:32;4.00;;;2.83;;
75007;SDS011;63554;48.940;12.050;2022-11-18T08:45:38;5.97;;;3.45;;
75007;SDS011;63554;48.940;12.050;2022-11-18T08:49:41;7.63;;;5.57;;
75007;SDS011;63554;48.940;12.050;2022-11-18T08:53:43;6.43;;;4.40;;
75007;SDS011;63554;48.940;12.050;2022-11-18T08:57:46;5.28;;;2.97;;
75007;SDS011;63554;48.940;12.050;2022-11-18T09:01:51;4.60;;;3.75;;
75007;SDS011;63554;48.940;12.050;2022-11-18T09:06:03;2.72;;;2.45;;
75007;SDS011;63554;48.940;12.050;2022-11-18T09:10:07;2.38;;;1.98;;
75007;SDS011;63554;48.940;12.050;2022-11-18T09:14:10;1.40;;;1.30;;
75007;SDS011;63554;48.940;12.050;2022-11-18T09:18:35;1.52;;;1.35;;
75007;SDS011;63554;48.940;12.050;2022-11-18T09:22:38;1.25;;;0.93;;
75007;SDS011;63554;48.940;12.050;2022-11-18T09:26:41;2.45;;;2.25;;
75007;SDS011;63554;48.940;12.050;2022-11-18T09:30:43;2.10;;;1.90;;
75007;SDS011;63554;48.940;12.050;2022-11-18T09:34:47;1.25;;;1.17;;
75007;SDS011;63554;48.940;12.050;2022-11-18T09:38:50;0.50;;;0.50;;
75007;SDS011;63554;48.940;12.050;2022-11-18T09:42:55;0.88;;;0.85;;
75007;SDS011;63554;48.940;12.050;2022-11-18T09:47:09;0.90;;;0.90;;
75007;SDS011;63554;48.940;12.050;2022-11-18T09:51:24;1.40;;;0.95;;
75007;SDS011;63554;48.940;12.050;2022-11-18T09:55:30;0.95;;;0.95;;
75007;SDS011;63554;48.940;12.050;2022-11-18T09:59:35;0.80;;;0.80;;
75007;SDS011;63554;48.940;12.050;2022-11-18T10:03:39;0.73;;;0.73;;
75007;SDS011;63554;48.940;12.050;2022-11-18T10:07:45;1.20;;;1.20;;
75007;SDS011;63554;48.940;12.050;2022-11-18T10:11:59;0.60;;;0.60;;
75007;SDS011;63554;48.940;12.050;2022-11-18T10:16:14;0.45;;;0.45;;
75007;SDS011;63554;48.940;12.050;2022-11-18T10:20:30;0.57;;;0.57;;
75007;SDS011;63554;48.940;12.050;2022-11-18T10:24:41;0.50;;;0.50;;
75007;SDS011;63554;48.940;12.050;2022-11-18T10:28:50;0.63;;;0.63;;
75007;SDS011;63554;48.940;12.050;2022-11-18T10:32:54;0.60;;;0.60;;
75007;SDS011;63554;48.940;12.050;2022-11-18T10:37:00;0.63;;;0.63;;
75007;SDS011;63554;48.940;12.050;2022-11-18T10:41:06;0.60;;;0.60;;
75007;SDS011;63554;48.940;12.050;2022-11-18T10:45:15;0.40;;;0.40;;
75007;SDS011;63554;48.940;12.050;2022-11-18T10:49:19;0.17;;;0.10;;
